createdAt,value
2022-08-05T00:00:16.023Z,85.71
2022-08-05T00:02:51.767Z,85.89
2022-08-05T00:06:02.523Z,85.97
2022-08-05T00:08:20.035Z,86.57
2022-08-05T00:10:57.088Z,87.69
2022-08-05T00:13:38.238Z,87.30
2022-08-05T00:16:08.964Z,87.30
2022-08-05T00:18:38.040Z,87.32
2022-08-05T00:21:06.470Z,88.71
2022-08-05T00:23:46.250Z,89.17
2022-08-05T00:26:14.700Z,90.23
2022-08-05T00:28:45.874Z,91.28
2022-08-05T00:31:13.317Z,90.56
2022-08-05T00:34:55.423Z,89.74
2022-08-05T00:37:12.996Z,90.93
2022-08-05T00:39:14.238Z,89.87
2022-08-05T00:41:52.155Z,90.15
2022-08-05T00:44:30.733Z,89.40
2022-08-05T00:47:01.970Z,89.64
2022-08-05T00:49:32.705Z,92.48
2022-08-05T00:52:00.169Z,90.81
2022-08-05T00:54:28.090Z,90.47
2022-08-05T00:56:57.003Z,90.21
2022-08-05T00:59:23.743Z,89.17
2022-08-05T01:01:51.236Z,90.08
2022-08-05T01:04:19.890Z,90.97
2022-08-05T01:06:51.692Z,90.60
2022-08-05T01:09:20.128Z,90.34
2022-08-05T01:11:50.827Z,90.23
2022-08-05T01:14:32.487Z,90.48
2022-08-05T01:17:08.778Z,90.84
2022-08-05T01:20:01.788Z,90.95
2022-08-05T01:23:14.558Z,90.57
2022-08-05T01:25:53.233Z,91.59
2022-08-05T01:28:26.578Z,90.36
2022-08-05T01:31:09.495Z,90.76
2022-08-05T01:33:53.579Z,90.19
2022-08-05T01:36:28.177Z,90.05
2022-08-05T01:38:56.175Z,89.47
2022-08-05T01:41:25.557Z,89.14
2022-08-05T01:43:54.036Z,89.28
2022-08-05T01:46:42.099Z,89.12
2022-08-05T01:49:23.131Z,89.51
2022-08-05T01:51:56.166Z,89.03
2022-08-05T01:54:29.186Z,88.81
2022-08-05T01:58:10.382Z,88.76
2022-08-05T01:59:49.203Z,89.49
2022-08-05T02:02:17.713Z,88.68
2022-08-05T02:04:49.504Z,89.15
2022-08-05T02:07:21.961Z,88.80
2022-08-05T02:09:50.974Z,88.97
2022-08-05T02:12:27.665Z,88.67
2022-08-05T02:15:06.940Z,89.25
2022-08-05T02:18:31.604Z,90.78
2022-08-05T02:20:46.895Z,90.23
2022-08-05T02:23:17.629Z,88.87
2022-08-05T02:25:49.196Z,89.55
2022-08-05T02:28:29.338Z,89.93
2022-08-05T02:31:01.074Z,89.86
2022-08-05T02:33:38.658Z,90.41
2022-08-05T02:36:13.407Z,90.27
2022-08-05T02:38:53.140Z,91.63
2022-08-05T02:41:22.925Z,91.90
2022-08-05T02:44:06.582Z,92.73
2022-08-05T02:46:53.463Z,93.22
2022-08-05T02:49:37.006Z,93.86
2022-08-05T02:52:09.970Z,93.53
2022-08-05T02:54:41.297Z,94.60
2022-08-05T02:58:11.264Z,96.02
2022-08-05T02:59:59.467Z,95.93
2022-08-05T03:02:33.048Z,95.48
2022-08-05T03:05:01.161Z,94.42
2022-08-05T03:08:01.183Z,95.73
2022-08-05T03:10:22.112Z,96.14
2022-08-05T03:12:53.114Z,96.26
2022-08-05T03:15:20.833Z,96.91
2022-08-05T03:17:50.510Z,97.01
2022-08-05T03:20:21.051Z,97.49
2022-08-05T03:22:50.025Z,96.76
2022-08-05T03:26:03.911Z,97.68
2022-08-05T03:28:08.722Z,97.02
2022-08-05T03:30:38.302Z,96.58
2022-08-05T03:33:08.307Z,95.99
2022-08-05T03:35:41.269Z,95.90
2022-08-05T03:38:12.668Z,95.64
2022-08-05T03:40:45.127Z,95.32
2022-08-05T03:43:59.310Z,94.83
2022-08-05T03:46:01.858Z,94.14
2022-08-05T03:48:29.742Z,94.16
2022-08-05T03:52:49.353Z,93.98
2022-08-05T03:56:00.988Z,95.50
2022-08-05T03:57:15.957Z,95.91
2022-08-05T03:59:57.083Z,96.24
2022-08-05T04:02:38.344Z,95.86
2022-08-05T04:05:13.076Z,95.42
2022-08-05T04:07:58.296Z,95.70
2022-08-05T04:10:30.848Z,95.86
2022-08-05T04:13:13.086Z,95.03
2022-08-05T04:15:52.799Z,94.48
2022-08-05T04:18:27.203Z,94.78
2022-08-05T04:20:55.511Z,94.59
2022-08-05T04:24:04.655Z,95.43
2022-08-05T04:26:13.694Z,95.54
2022-08-05T04:28:40.440Z,95.50
2022-08-05T04:31:18.037Z,95.63
2022-08-05T04:34:17.482Z,95.75
2022-08-05T04:36:46.241Z,95.52
2022-08-05T04:39:16.916Z,96.03
2022-08-05T04:41:44.925Z,95.93
2022-08-05T04:44:12.830Z,95.08
2022-08-05T04:46:40.105Z,95.03
2022-08-05T04:49:14.390Z,95.00
2022-08-05T04:51:42.815Z,94.53
2022-08-05T04:54:10.118Z,95.37
2022-08-05T04:56:38.721Z,95.66
2022-08-05T04:59:21.755Z,94.16
2022-08-05T05:02:35.012Z,93.91
2022-08-05T05:04:38.669Z,95.80
2022-08-05T05:07:15.920Z,96.26
2022-08-05T05:09:42.746Z,97.03
2022-08-05T05:12:11.524Z,97.13
2022-08-05T05:14:38.494Z,97.46
2022-08-05T05:17:22.874Z,97.36
2022-08-05T05:19:55.053Z,96.08
2022-08-05T05:22:26.450Z,96.91
2022-08-05T05:24:59.084Z,96.77
2022-08-05T05:27:45.067Z,97.30
2022-08-05T05:30:15.736Z,97.38
2022-08-05T05:33:00.131Z,96.99
2022-08-05T05:35:31.607Z,97.37
2022-08-05T05:38:06.415Z,96.51
2022-08-05T05:40:36.311Z,95.85
2022-08-05T05:43:03.315Z,94.16
2022-08-05T05:45:30.179Z,92.97
2022-08-05T05:48:06.246Z,92.59
2022-08-05T05:50:43.888Z,93.06
2022-08-05T05:53:22.308Z,91.94
2022-08-05T05:55:51.769Z,92.67
2022-08-05T05:58:31.395Z,92.91
2022-08-05T06:01:12.106Z,92.11
2022-08-05T06:04:01.226Z,92.00
2022-08-05T06:06:33.077Z,91.55
2022-08-05T06:09:01.385Z,91.35
2022-08-05T06:11:30.483Z,92.20
2022-08-05T06:13:57.308Z,91.68
2022-08-05T06:16:30.436Z,90.92
2022-08-05T06:19:01.126Z,89.78
2022-08-05T06:21:35.945Z,89.14
2022-08-05T06:24:11.476Z,89.36
2022-08-05T06:26:52.378Z,88.92
2022-08-05T06:29:23.773Z,88.65
2022-08-05T06:32:21.290Z,88.05
2022-08-05T06:34:56.192Z,86.10
2022-08-05T06:37:56.480Z,84.68
2022-08-05T06:40:12.792Z,82.82
2022-08-05T06:42:40.925Z,81.54
2022-08-05T06:45:09.180Z,79.48
2022-08-05T06:48:36.626Z,78.31
2022-08-05T06:50:23.756Z,76.89
2022-08-05T06:52:58.492Z,77.19
2022-08-05T06:55:25.731Z,78.28
2022-08-05T06:58:03.446Z,78.49
2022-08-05T07:00:41.027Z,79.37
2022-08-05T07:03:09.640Z,79.61
2022-08-05T07:05:37.848Z,79.32
2022-08-05T07:08:10.704Z,80.47
2022-08-05T07:10:38.615Z,79.16
2022-08-05T07:13:39.529Z,80.31
2022-08-05T07:17:56.675Z,80.37
2022-08-05T07:19:44.325Z,79.28
2022-08-05T07:22:07.113Z,79.63
2022-08-05T07:24:35.179Z,79.52
2022-08-05T07:27:10.704Z,78.57
2022-08-05T07:30:27.874Z,78.58
2022-08-05T07:32:26.184Z,78.73
2022-08-05T07:34:57.966Z,79.26
2022-08-05T07:37:35.921Z,78.30
2022-08-05T07:40:26.951Z,78.56
2022-08-05T07:42:52.311Z,78.18
2022-08-05T07:45:19.144Z,77.96
2022-08-05T07:48:05.864Z,76.76
2022-08-05T07:50:35.444Z,75.79
2022-08-05T07:53:03.281Z,75.75
2022-08-05T07:55:44.633Z,76.46
2022-08-05T07:58:57.403Z,77.48
2022-08-05T08:01:06.122Z,77.59
2022-08-05T08:03:44.645Z,78.69
2022-08-05T08:06:11.633Z,79.10
2022-08-05T08:08:38.215Z,79.45
2022-08-05T08:11:05.291Z,77.63
2022-08-05T08:13:49.277Z,76.77
2022-08-05T08:16:49.794Z,76.37
2022-08-05T08:19:10.044Z,75.99
2022-08-05T08:21:56.691Z,75.70
2022-08-05T08:24:50.937Z,75.88
2022-08-05T08:27:11.006Z,76.33
2022-08-05T08:30:05.097Z,75.72
2022-08-05T08:32:29.831Z,75.54
2022-08-05T08:34:56.444Z,74.93
2022-08-05T08:37:27.982Z,76.24
2022-08-05T08:39:55.115Z,76.65
2022-08-05T08:42:34.216Z,77.88
2022-08-05T08:45:23.521Z,78.02
2022-08-05T08:48:11.316Z,77.52
2022-08-05T08:51:03.411Z,77.17
2022-08-05T08:53:36.823Z,76.10
2022-08-05T08:56:06.283Z,75.45
2022-08-05T08:58:43.081Z,75.57
2022-08-05T09:01:16.694Z,74.77
2022-08-05T09:03:52.910Z,74.32
2022-08-05T09:06:24.150Z,73.65
2022-08-05T09:08:55.529Z,72.97
2022-08-05T09:11:51.448Z,71.33
2022-08-05T09:14:56.346Z,69.90
2022-08-05T09:17:09.711Z,70.03
2022-08-05T09:20:01.615Z,71.64
2022-08-05T09:22:31.648Z,70.71
2022-08-05T09:25:13.915Z,69.33
2022-08-05T09:28:05.940Z,70.80
2022-08-05T09:30:34.725Z,71.53
2022-08-05T09:33:02.504Z,70.76
2022-08-05T09:35:32.748Z,70.37
2022-08-05T09:38:16.513Z,68.63
2022-08-05T09:40:52.501Z,68.39
2022-08-05T09:43:40.514Z,68.00
2022-08-05T09:46:28.304Z,70.33
2022-08-05T09:49:08.260Z,69.08
2022-08-05T09:51:49.540Z,68.64
2022-08-05T09:54:29.566Z,67.80
2022-08-05T09:56:57.626Z,66.37
2022-08-05T09:59:28.129Z,66.21
2022-08-05T10:01:57.767Z,67.04
2022-08-05T10:04:36.055Z,66.40
2022-08-05T10:07:20.082Z,65.47
2022-08-05T10:10:13.938Z,66.71
2022-08-05T10:12:51.482Z,64.83
2022-08-05T10:15:37.628Z,63.59
2022-08-05T10:18:12.108Z,62.86
2022-08-05T10:20:49.018Z,61.99
2022-08-05T10:23:50.928Z,65.17
2022-08-05T10:26:13.991Z,65.19
2022-08-05T10:28:45.519Z,66.75
2022-08-05T10:32:48.002Z,70.29
2022-08-05T10:34:04.257Z,71.84
2022-08-05T10:36:39.493Z,69.99
2022-08-05T10:39:24.283Z,71.47
2022-08-05T10:42:13.404Z,73.75
2022-08-05T10:44:45.143Z,74.73
2022-08-05T10:47:27.004Z,74.61
2022-08-05T10:50:20.587Z,74.67
2022-08-05T10:52:58.767Z,75.60
2022-08-05T10:55:27.083Z,75.46
2022-08-05T10:58:08.957Z,74.88
2022-08-05T11:00:42.059Z,73.51
2022-08-05T11:03:23.437Z,72.16
2022-08-05T11:06:15.178Z,71.52
2022-08-05T11:09:17.831Z,70.84
2022-08-05T11:11:53.201Z,71.44
2022-08-05T11:15:01.183Z,68.35
2022-08-05T11:18:09.448Z,67.11
2022-08-05T11:20:39.259Z,68.27
2022-08-05T11:23:49.915Z,65.36
2022-08-05T11:26:29.040Z,67.23
2022-08-05T11:29:11.514Z,66.99
2022-08-05T11:31:58.022Z,66.60
2022-08-05T11:34:52.125Z,64.11
2022-08-05T11:38:29.525Z,64.30
2022-08-05T11:41:36.820Z,63.26
2022-08-05T11:44:08.290Z,62.30
2022-08-05T11:46:58.326Z,61.69
2022-08-05T11:49:26.049Z,61.88
2022-08-05T11:51:57.612Z,63.65
2022-08-05T11:54:35.072Z,67.25
2022-08-05T11:57:08.751Z,70.16
2022-08-05T11:59:50.936Z,71.09
2022-08-05T12:02:30.952Z,71.85
2022-08-05T12:05:07.931Z,73.18
2022-08-05T12:08:08.384Z,74.61
2022-08-05T12:10:43.690Z,74.28
2022-08-05T12:13:27.970Z,71.47
2022-08-05T12:16:18.146Z,68.58
2022-08-05T12:18:52.715Z,65.21
2022-08-05T12:21:32.165Z,67.53
2022-08-05T12:24:06.984Z,68.63
2022-08-05T12:26:38.642Z,70.07
2022-08-05T12:29:09.418Z,70.07
2022-08-05T12:31:45.864Z,70.91
2022-08-05T12:34:21.269Z,67.01
2022-08-05T12:36:52.309Z,68.73
2022-08-05T12:39:19.223Z,68.21
2022-08-05T12:41:46.201Z,68.28
2022-08-05T12:44:28.711Z,68.27
2022-08-05T12:47:00.248Z,70.48
2022-08-05T12:50:04.596Z,69.60
2022-08-05T12:52:32.434Z,70.99
2022-08-05T12:55:18.150Z,72.42
2022-08-05T12:58:49.211Z,74.11
2022-08-05T13:02:03.285Z,74.23
2022-08-05T13:03:32.296Z,74.84
2022-08-05T13:06:01.099Z,74.66
2022-08-05T13:08:32.344Z,74.22
2022-08-05T13:11:02.454Z,74.87
2022-08-05T13:14:06.602Z,75.70
2022-08-05T13:16:20.225Z,73.82
2022-08-05T13:18:58.753Z,72.20
2022-08-05T13:21:28.290Z,72.66
2022-08-05T13:24:05.616Z,72.60
2022-08-05T13:26:32.397Z,74.47
2022-08-05T13:28:59.453Z,73.74
2022-08-05T13:32:02.902Z,72.75
2022-08-05T13:34:21.194Z,73.71
2022-08-05T13:36:50.359Z,74.36
2022-08-05T13:39:24.747Z,74.60
2022-08-05T13:42:03.749Z,74.15
2022-08-05T13:44:30.390Z,74.44
2022-08-05T13:47:04.617Z,73.67
2022-08-05T13:49:35.315Z,72.77
2022-08-05T13:52:12.640Z,72.94
2022-08-05T13:54:40.118Z,71.52
2022-08-05T13:57:08.023Z,67.99
2022-08-05T13:59:37.637Z,66.27
2022-08-05T14:02:26.673Z,63.22
2022-08-05T14:05:15.338Z,62.89
2022-08-05T14:07:59.945Z,63.31
2022-08-05T14:10:32.433Z,62.15
2022-08-05T14:12:59.823Z,61.95
2022-08-05T14:16:09.128Z,62.43
2022-08-05T14:18:18.567Z,61.09
2022-08-05T14:20:54.435Z,60.40
2022-08-05T14:23:24.902Z,60.63
2022-08-05T14:25:58.436Z,61.25
2022-08-05T14:28:29.528Z,61.46
2022-08-05T14:30:58.001Z,60.30
2022-08-05T14:33:25.092Z,60.63
2022-08-05T14:35:54.271Z,60.03
2022-08-05T14:38:27.728Z,59.02
2022-08-05T14:41:00.700Z,58.68
2022-08-05T14:43:59.084Z,58.60
2022-08-05T14:46:13.955Z,57.56
2022-08-05T14:48:40.886Z,58.88
2022-08-05T14:51:08.538Z,58.30
2022-08-05T14:53:44.358Z,59.06
2022-08-05T14:56:12.003Z,57.53
2022-08-05T14:58:47.528Z,57.17
2022-08-05T15:01:24.331Z,56.25
2022-08-05T15:04:11.370Z,56.96
2022-08-05T15:06:38.979Z,56.07
2022-08-05T15:09:07.671Z,55.98
2022-08-05T15:11:51.557Z,56.21
2022-08-05T15:14:35.837Z,55.55
2022-08-05T15:17:05.090Z,55.20
2022-08-05T15:19:36.784Z,55.58
2022-08-05T15:22:05.950Z,55.01
2022-08-05T15:24:32.742Z,54.12
2022-08-05T15:26:59.357Z,54.13
2022-08-05T15:29:29.884Z,54.90
2022-08-05T15:31:57.531Z,54.88
2022-08-05T15:34:32.784Z,53.85
2022-08-05T15:37:06.914Z,55.91
2022-08-05T15:40:58.491Z,55.95
2022-08-05T15:42:54.714Z,54.15
2022-08-05T15:45:14.884Z,51.40
2022-08-05T15:47:42.934Z,51.97
2022-08-05T15:50:15.086Z,52.65
2022-08-05T15:52:53.715Z,51.73
2022-08-05T15:55:25.148Z,53.27
2022-08-05T15:58:09.191Z,53.13
2022-08-05T16:00:50.990Z,52.24
2022-08-05T16:03:30.651Z,52.94
2022-08-05T16:05:59.500Z,52.30
2022-08-05T16:08:29.289Z,52.46
2022-08-05T16:10:57.996Z,52.35
2022-08-05T16:13:31.906Z,52.44
2022-08-05T16:16:01.790Z,52.53
2022-08-05T16:18:30.875Z,51.75
2022-08-05T16:20:58.584Z,51.89
2022-08-05T16:23:28.408Z,52.58
2022-08-05T16:26:14.984Z,52.86
2022-08-05T16:28:42.214Z,51.54
2022-08-05T16:31:10.537Z,51.42
2022-08-05T16:33:41.576Z,51.14
2022-08-05T16:36:09.060Z,51.60
2022-08-05T16:38:35.770Z,51.58
2022-08-05T16:42:12.805Z,51.02
2022-08-05T16:43:49.442Z,51.00
2022-08-05T16:46:24.324Z,50.91
2022-08-05T16:48:52.048Z,50.98
2022-08-05T16:51:19.463Z,51.40
2022-08-05T16:54:05.422Z,51.89
2022-08-05T16:56:36.500Z,52.52
2022-08-05T16:59:10.159Z,52.19
2022-08-05T17:01:52.886Z,52.49
2022-08-05T17:04:23.857Z,52.64
2022-08-05T17:06:55.301Z,53.14
2022-08-05T17:09:23.143Z,52.78
2022-08-05T17:11:54.675Z,52.59
2022-08-05T17:14:34.137Z,52.52
2022-08-05T17:17:14.229Z,52.29
2022-08-05T17:19:43.845Z,52.01
2022-08-05T17:22:24.735Z,52.38
2022-08-05T17:24:57.981Z,52.30
2022-08-05T17:27:27.628Z,52.91
2022-08-05T17:30:02.563Z,53.89
2022-08-05T17:32:30.147Z,54.07
2022-08-05T17:35:00.500Z,55.35
2022-08-05T17:37:41.584Z,55.17
2022-08-05T17:40:15.025Z,55.75
2022-08-05T17:42:49.759Z,56.61
2022-08-05T17:45:24.814Z,56.41
2022-08-05T17:47:55.533Z,56.40
2022-08-05T17:50:28.204Z,56.65
2022-08-05T17:53:00.637Z,57.38
2022-08-05T17:55:37.825Z,58.05
2022-08-05T17:58:09.334Z,58.01
2022-08-05T18:00:36.975Z,58.50
2022-08-05T18:03:11.635Z,58.16
2022-08-05T18:05:53.739Z,56.88
2022-08-05T18:08:20.981Z,56.43
2022-08-05T18:10:47.674Z,56.46
2022-08-05T18:13:15.277Z,56.91
2022-08-05T18:15:42.606Z,56.54
2022-08-05T18:18:11.594Z,56.86
2022-08-05T18:20:38.779Z,57.40
2022-08-05T18:23:09.191Z,56.73
2022-08-05T18:25:39.480Z,57.30
2022-08-05T18:28:09.720Z,57.14
2022-08-05T18:30:39.166Z,57.22
2022-08-05T18:33:08.447Z,57.44
2022-08-05T18:36:01.126Z,57.31
2022-08-05T18:38:25.794Z,57.27
2022-08-05T18:41:58.798Z,57.13
2022-08-05T18:43:43.042Z,57.61
2022-08-05T18:46:20.239Z,57.04
2022-08-05T18:48:53.872Z,57.30
2022-08-05T18:52:06.917Z,57.46
2022-08-05T18:54:27.514Z,57.94
2022-08-05T18:56:55.128Z,58.02
2022-08-05T18:59:43.238Z,57.76
2022-08-05T19:02:11.198Z,58.86
2022-08-05T19:05:01.133Z,59.00
2022-08-05T19:07:25.822Z,58.52
2022-08-05T19:09:56.995Z,58.29
2022-08-05T19:12:24.146Z,58.84
2022-08-05T19:15:00.513Z,58.75
2022-08-05T19:17:58.293Z,59.07
2022-08-05T19:20:15.937Z,59.13
2022-08-05T19:22:44.137Z,59.10
2022-08-05T19:25:11.013Z,59.18
2022-08-05T19:27:56.119Z,59.41
2022-08-05T19:30:22.865Z,59.50
2022-08-05T19:32:50.483Z,59.78
2022-08-05T19:35:17.123Z,60.11
2022-08-05T19:38:06.550Z,60.38
2022-08-05T19:40:34.793Z,60.64
2022-08-05T19:43:05.716Z,60.39
2022-08-05T19:45:36.585Z,60.46
2022-08-05T19:48:05.372Z,60.59
2022-08-05T19:50:32.597Z,60.77
2022-08-05T19:53:10.687Z,60.69
2022-08-05T19:56:15.703Z,60.70
2022-08-05T19:58:29.465Z,61.08
2022-08-05T20:00:56.912Z,61.00
2022-08-05T20:03:24.489Z,60.68
2022-08-05T20:05:56.649Z,60.37
2022-08-05T20:08:24.382Z,60.53
2022-08-05T20:10:52.385Z,60.69
2022-08-05T20:13:30.238Z,60.70
2022-08-05T20:16:06.345Z,60.29
2022-08-05T20:18:35.912Z,60.50
2022-08-05T20:21:05.183Z,60.18
2022-08-05T20:23:39.874Z,60.68
2022-08-05T20:26:17.800Z,60.39
2022-08-05T20:28:53.996Z,60.51
2022-08-05T20:31:37.023Z,61.07
2022-08-05T20:34:12.521Z,62.17
2022-08-05T20:36:39.263Z,63.00
2022-08-05T20:39:12.875Z,65.20
2022-08-05T20:41:44.486Z,62.86
2022-08-05T20:44:29.231Z,64.16
2022-08-05T20:47:03.261Z,63.64
2022-08-05T20:49:33.314Z,63.44
2022-08-05T20:52:07.257Z,63.80
2022-08-05T20:54:42.770Z,66.34
2022-08-05T20:57:24.734Z,65.73
2022-08-05T21:00:40.310Z,68.89
2022-08-05T21:03:01.298Z,66.91
2022-08-05T21:05:28.586Z,67.68
2022-08-05T21:08:15.082Z,68.35
2022-08-05T21:10:49.098Z,67.22
2022-08-05T21:13:25.963Z,68.20
2022-08-05T21:16:03.786Z,71.38
2022-08-05T21:18:30.788Z,68.17
2022-08-05T21:20:57.540Z,74.28
2022-08-05T21:23:24.759Z,72.42
2022-08-05T21:25:51.679Z,70.65
2022-08-05T21:28:23.937Z,75.24
2022-08-05T21:30:50.772Z,71.82
2022-08-05T21:33:22.598Z,74.45
2022-08-05T21:35:58.365Z,71.02
2022-08-05T21:38:26.655Z,69.79
2022-08-05T21:40:53.304Z,70.92
2022-08-05T21:43:24.549Z,73.43
2022-08-05T21:45:57.875Z,71.33
2022-08-05T21:48:28.454Z,70.65
2022-08-05T21:50:55.598Z,71.90
2022-08-05T21:53:27.360Z,72.40
2022-08-05T21:56:05.041Z,71.40
2022-08-05T21:58:36.922Z,72.24
2022-08-05T22:01:10.619Z,71.58
2022-08-05T22:03:52.379Z,75.62
2022-08-05T22:06:22.595Z,73.09
2022-08-05T22:08:52.031Z,70.84
2022-08-05T22:11:19.572Z,76.54
2022-08-05T22:14:34.117Z,73.05
2022-08-05T22:16:53.041Z,78.73
2022-08-05T22:20:02.227Z,71.89
2022-08-05T22:22:10.257Z,78.46
2022-08-05T22:24:55.890Z,73.50
2022-08-05T22:28:09.062Z,74.30
2022-08-05T22:30:34.909Z,77.12
2022-08-05T22:33:03.493Z,74.73
2022-08-05T22:35:31.040Z,75.08
2022-08-05T22:38:14.990Z,73.68
2022-08-05T22:40:42.030Z,74.08
2022-08-05T22:43:16.309Z,75.23
2022-08-05T22:46:08.832Z,74.01
2022-08-05T22:48:40.003Z,77.60
2022-08-05T22:51:07.864Z,78.89
2022-08-05T22:53:35.869Z,78.31
2022-08-05T22:56:04.026Z,74.69
2022-08-05T22:58:36.627Z,77.05
2022-08-05T23:01:03.244Z,77.39
2022-08-05T23:03:59.039Z,76.69
2022-08-05T23:06:19.815Z,74.14
2022-08-05T23:08:53.007Z,75.51
2022-08-05T23:11:19.791Z,79.25
2022-08-05T23:13:51.515Z,81.69
2022-08-05T23:16:38.578Z,76.67
2022-08-05T23:19:10.726Z,78.70
2022-08-05T23:21:52.385Z,75.04
2022-08-05T23:24:21.048Z,80.47
2022-08-05T23:26:49.075Z,79.23
2022-08-05T23:29:16.547Z,77.61
2022-08-05T23:31:46.064Z,82.86
2022-08-05T23:34:16.149Z,78.21
2022-08-05T23:36:51.434Z,77.63
2022-08-05T23:39:31.920Z,78.88
2022-08-05T23:42:00.032Z,79.80
2022-08-05T23:44:27.938Z,79.38
2022-08-05T23:46:59.082Z,82.85
2022-08-05T23:49:36.037Z,79.03
2022-08-05T23:52:22.038Z,79.39
2022-08-05T23:54:56.823Z,79.60
2022-08-05T23:57:28.083Z,83.47
